sensor_id;sensor_type;location;lat;lon;timestamp;temperature;humidity
39237;DHT22;36851;49.996;8.268;2022-10-16T00:01:08;21.10;99.90
39237;DHT22;36851;49.996;8.268;2022-10-16T00:03:36;21.10;99.90
39237;DHT22;36851;49.996;8.268;2022-10-16T00:06:03;21.10;99.90
39237;DHT22;36851;49.996;8.268;2022-10-16T00:08:31;21.10;99.90
39237;DHT22;36851;49.996;8.268;2022-10-16T00:11:02;21.10;99.90
39237;DHT22;36851;49.996;8.268;2022-10-16T00:13:30;21.10;99.90
39237;DHT22;36851;49.996;8.268;2022-10-16T00:15:58;21.10;99.90
39237;DHT22;36851;49.996;8.268;2022-10-16T00:18:26;21.10;99.90
39237;DHT22;36851;49.996;8.268;2022-10-16T00:20:53;21.10;99.90
39237;DHT22;36851;49.996;8.268;2022-10-16T00:23:21;21.10;99.90
39237;DHT22;36851;49.996;8.268;2022-10-16T00:25:58;21.00;99.90
39237;DHT22;36851;49.996;8.268;2022-10-16T00:28:26;21.00;99.90
39237;DHT22;36851;49.996;8.268;2022-10-16T00:30:53;21.00;99.90
39237;DHT22;36851;49.996;8.268;2022-10-16T00:33:20;21.00;99.90
39237;DHT22;36851;49.996;8.268;2022-10-16T00:35:47;21.00;99.90
39237;DHT22;36851;49.996;8.268;2022-10-16T00:38:15;21.00;99.90
39237;DHT22;36851;49.996;8.268;2022-10-16T00:40:42;21.00;99.90
39237;DHT22;36851;49.996;8.268;2022-10-16T00:43:12;21.00;99.90
39237;DHT22;36851;49.996;8.268;2022-10-16T00:45:39;21.00;99.90
39237;DHT22;36851;49.996;8.268;2022-10-16T00:48:07;21.00;99.90
39237;DHT22;36851;49.996;8.268;2022-10-16T00:50:37;21.00;99.90
39237;DHT22;36851;49.996;8.268;2022-10-16T00:53:05;21.00;99.90
39237;DHT22;36851;49.996;8.268;2022-10-16T00:55:32;21.00;99.90
39237;DHT22;36851;49.996;8.268;2022-10-16T00:58:05;21.00;99.90
39237;DHT22;36851;49.996;8.268;2022-10-16T01:00:33;21.00;99.90
39237;DHT22;36851;49.996;8.268;2022-10-16T01:03:00;21.00;99.90
39237;DHT22;36851;49.996;8.268;2022-10-16T01:05:45;21.00;99.90
39237;DHT22;36851;49.996;8.268;2022-10-16T01:08:18;21.00;99.90
39237;DHT22;36851;49.996;8.268;2022-10-16T01:13:42;20.90;99.90
39237;DHT22;36851;49.996;8.268;2022-10-16T01:16:08;21.00;99.90
39237;DHT22;36851;49.996;8.268;2022-10-16T01:18:37;21.00;99.90
39237;DHT22;36851;49.996;8.268;2022-10-16T01:21:08;21.00;99.90
39237;DHT22;36851;49.996;8.268;2022-10-16T01:24:27;21.00;99.90
39237;DHT22;36851;49.996;8.268;2022-10-16T01:28:58;21.00;99.90
39237;DHT22;36851;49.996;8.268;2022-10-16T01:31:29;20.90;99.90
39237;DHT22;36851;49.996;8.268;2022-10-16T01:34:14;20.90;99.90
39237;DHT22;36851;49.996;8.268;2022-10-16T01:36:43;21.00;99.90
39237;DHT22;36851;49.996;8.268;2022-10-16T01:39:12;20.90;99.90
39237;DHT22;36851;49.996;8.268;2022-10-16T01:41:43;20.90;99.90
39237;DHT22;36851;49.996;8.268;2022-10-16T01:44:13;20.90;99.90
39237;DHT22;36851;49.996;8.268;2022-10-16T01:46:41;20.90;99.90
39237;DHT22;36851;49.996;8.268;2022-10-16T01:49:09;20.90;99.90
39237;DHT22;36851;49.996;8.268;2022-10-16T01:51:37;20.90;99.90
39237;DHT22;36851;49.996;8.268;2022-10-16T01:54:04;20.90;99.90
39237;DHT22;36851;49.996;8.268;2022-10-16T01:56:34;20.90;99.90
39237;DHT22;36851;49.996;8.268;2022-10-16T01:59:02;20.90;99.90
39237;DHT22;36851;49.996;8.268;2022-10-16T02:01:31;20.90;99.90
39237;DHT22;36851;49.996;8.268;2022-10-16T02:04:02;20.90;99.90
39237;DHT22;36851;49.996;8.268;2022-10-16T02:06:31;20.90;99.90
39237;DHT22;36851;49.996;8.268;2022-10-16T02:08:58;20.90;99.90
39237;DHT22;36851;49.996;8.268;2022-10-16T02:11:26;20.90;99.90
39237;DHT22;36851;49.996;8.268;2022-10-16T02:13:54;20.90;99.90
39237;DHT22;36851;49.996;8.268;2022-10-16T02:16:23;20.90;99.90
39237;DHT22;36851;49.996;8.268;2022-10-16T02:18:50;20.90;99.90
39237;DHT22;36851;49.996;8.268;2022-10-16T02:21:28;20.90;99.90
39237;DHT22;36851;49.996;8.268;2022-10-16T02:24:11;20.90;99.90
39237;DHT22;36851;49.996;8.268;2022-10-16T02:29:11;20.90;99.90
39237;DHT22;36851;49.996;8.268;2022-10-16T02:31:41;20.80;99.90
39237;DHT22;36851;49.996;8.268;2022-10-16T02:34:10;20.80;99.90
39237;DHT22;36851;49.996;8.268;2022-10-16T02:36:39;20.80;99.90
39237;DHT22;36851;49.996;8.268;2022-10-16T02:39:06;20.80;99.90
39237;DHT22;36851;49.996;8.268;2022-10-16T02:41:34;20.80;99.90
39237;DHT22;36851;49.996;8.268;2022-10-16T02:44:01;20.80;99.90
39237;DHT22;36851;49.996;8.268;2022-10-16T02:46:28;20.80;99.90
39237;DHT22;36851;49.996;8.268;2022-10-16T02:48:55;20.80;99.90
39237;DHT22;36851;49.996;8.268;2022-10-16T02:51:22;20.80;99.90
39237;DHT22;36851;49.996;8.268;2022-10-16T02:53:49;20.80;99.90
39237;DHT22;36851;49.996;8.268;2022-10-16T02:56:16;20.80;99.90
39237;DHT22;36851;49.996;8.268;2022-10-16T02:58:43;20.80;99.90
39237;DHT22;36851;49.996;8.268;2022-10-16T03:01:11;20.80;99.90
39237;DHT22;36851;49.996;8.268;2022-10-16T03:03:39;20.80;99.90
39237;DHT22;36851;49.996;8.268;2022-10-16T03:06:06;20.80;99.90
39237;DHT22;36851;49.996;8.268;2022-10-16T03:08:33;20.80;99.90
39237;DHT22;36851;49.996;8.268;2022-10-16T03:11:00;20.80;99.90
39237;DHT22;36851;49.996;8.268;2022-10-16T03:13:28;20.80;99.90
39237;DHT22;36851;49.996;8.268;2022-10-16T03:15:55;20.80;99.90
39237;DHT22;36851;49.996;8.268;2022-10-16T03:18:22;20.80;99.90
39237;DHT22;36851;49.996;8.268;2022-10-16T03:20:49;20.80;99.90
39237;DHT22;36851;49.996;8.268;2022-10-16T03:23:16;20.80;99.90
39237;DHT22;36851;49.996;8.268;2022-10-16T03:25:43;20.80;99.90
39237;DHT22;36851;49.996;8.268;2022-10-16T03:28:13;20.80;99.90
39237;DHT22;36851;49.996;8.268;2022-10-16T03:30:40;20.80;99.90
39237;DHT22;36851;49.996;8.268;2022-10-16T03:33:07;20.80;99.90
39237;DHT22;36851;49.996;8.268;2022-10-16T03:35:34;20.80;99.90
39237;DHT22;36851;49.996;8.268;2022-10-16T03:38:01;20.70;99.90
39237;DHT22;36851;49.996;8.268;2022-10-16T03:40:28;20.70;99.90
39237;DHT22;36851;49.996;8.268;2022-10-16T03:42:55;20.80;99.90
39237;DHT22;36851;49.996;8.268;2022-10-16T03:45:24;20.70;99.90
39237;DHT22;36851;49.996;8.268;2022-10-16T03:47:51;20.80;99.90
39237;DHT22;36851;49.996;8.268;2022-10-16T03:50:18;20.80;99.90
39237;DHT22;36851;49.996;8.268;2022-10-16T03:52:45;20.80;99.90
39237;DHT22;36851;49.996;8.268;2022-10-16T03:55:12;20.70;99.90
39237;DHT22;36851;49.996;8.268;2022-10-16T03:57:39;20.80;99.90
39237;DHT22;36851;49.996;8.268;2022-10-16T04:00:06;20.80;99.90
39237;DHT22;36851;49.996;8.268;2022-10-16T04:02:37;20.80;99.90
39237;DHT22;36851;49.996;8.268;2022-10-16T04:05:05;20.80;99.90
39237;DHT22;36851;49.996;8.268;2022-10-16T04:07:32;20.90;99.90
39237;DHT22;36851;49.996;8.268;2022-10-16T04:09:59;20.90;99.90
39237;DHT22;36851;49.996;8.268;2022-10-16T04:12:26;20.90;99.90
39237;DHT22;36851;49.996;8.268;2022-10-16T04:14:53;20.90;99.90
39237;DHT22;36851;49.996;8.268;2022-10-16T04:17:20;20.90;99.90
39237;DHT22;36851;49.996;8.268;2022-10-16T04:19:47;20.90;99.90
39237;DHT22;36851;49.996;8.268;2022-10-16T04:22:14;21.00;99.90
39237;DHT22;36851;49.996;8.268;2022-10-16T04:24:41;21.00;99.90
39237;DHT22;36851;49.996;8.268;2022-10-16T04:27:09;21.00;99.90
39237;DHT22;36851;49.996;8.268;2022-10-16T04:29:36;21.00;99.90
39237;DHT22;36851;49.996;8.268;2022-10-16T04:32:03;21.00;99.90
39237;DHT22;36851;49.996;8.268;2022-10-16T04:34:30;21.00;99.90
39237;DHT22;36851;49.996;8.268;2022-10-16T04:36:57;21.00;99.90
39237;DHT22;36851;49.996;8.268;2022-10-16T04:39:24;21.10;99.90
39237;DHT22;36851;49.996;8.268;2022-10-16T04:41:51;21.00;99.90
39237;DHT22;36851;49.996;8.268;2022-10-16T04:44:18;21.00;99.90
39237;DHT22;36851;49.996;8.268;2022-10-16T04:46:45;21.00;99.90
39237;DHT22;36851;49.996;8.268;2022-10-16T04:49:12;21.00;99.90
39237;DHT22;36851;49.996;8.268;2022-10-16T04:51:39;21.10;99.90
39237;DHT22;36851;49.996;8.268;2022-10-16T04:54:06;21.00;99.90
39237;DHT22;36851;49.996;8.268;2022-10-16T04:56:33;21.00;99.90
39237;DHT22;36851;49.996;8.268;2022-10-16T04:59:06;21.00;99.90
39237;DHT22;36851;49.996;8.268;2022-10-16T05:01:33;21.00;99.90
39237;DHT22;36851;49.996;8.268;2022-10-16T05:04:00;21.00;99.90
39237;DHT22;36851;49.996;8.268;2022-10-16T05:06:28;21.00;99.90
39237;DHT22;36851;49.996;8.268;2022-10-16T05:08:55;21.00;99.90
39237;DHT22;36851;49.996;8.268;2022-10-16T05:11:22;21.00;99.90
39237;DHT22;36851;49.996;8.268;2022-10-16T05:13:49;21.00;99.90
39237;DHT22;36851;49.996;8.268;2022-10-16T05:16:21;21.00;99.90
39237;DHT22;36851;49.996;8.268;2022-10-16T05:18:48;21.00;99.90
39237;DHT22;36851;49.996;8.268;2022-10-16T05:21:19;21.00;99.90
39237;DHT22;36851;49.996;8.268;2022-10-16T05:23:46;21.00;99.90
39237;DHT22;36851;49.996;8.268;2022-10-16T05:26:13;21.00;99.90
39237;DHT22;36851;49.996;8.268;2022-10-16T05:28:40;21.00;99.90
39237;DHT22;36851;49.996;8.268;2022-10-16T05:31:08;21.00;99.90
39237;DHT22;36851;49.996;8.268;2022-10-16T05:33:35;21.00;99.90
39237;DHT22;36851;49.996;8.268;2022-10-16T05:36:03;21.00;99.90
39237;DHT22;36851;49.996;8.268;2022-10-16T05:38:30;21.00;99.90
39237;DHT22;36851;49.996;8.268;2022-10-16T05:40:57;21.00;99.90
39237;DHT22;36851;49.996;8.268;2022-10-16T05:43:24;21.00;99.90
39237;DHT22;36851;49.996;8.268;2022-10-16T05:45:55;21.00;99.90
39237;DHT22;36851;49.996;8.268;2022-10-16T05:48:23;21.00;99.90
39237;DHT22;36851;49.996;8.268;2022-10-16T05:51:02;21.00;99.90
39237;DHT22;36851;49.996;8.268;2022-10-16T05:53:31;21.00;99.90
39237;DHT22;36851;49.996;8.268;2022-10-16T05:55:58;21.00;99.90
39237;DHT22;36851;49.996;8.268;2022-10-16T05:58:30;21.00;99.90
39237;DHT22;36851;49.996;8.268;2022-10-16T06:00:58;21.00;99.90
39237;DHT22;36851;49.996;8.268;2022-10-16T06:03:25;21.00;99.90
39237;DHT22;36851;49.996;8.268;2022-10-16T06:05:53;21.00;99.90
39237;DHT22;36851;49.996;8.268;2022-10-16T06:08:21;21.00;99.90
39237;DHT22;36851;49.996;8.268;2022-10-16T06:10:49;21.00;99.90
39237;DHT22;36851;49.996;8.268;2022-10-16T06:13:16;21.00;99.90
39237;DHT22;36851;49.996;8.268;2022-10-16T06:15:43;21.00;99.90
39237;DHT22;36851;49.996;8.268;2022-10-16T06:18:10;21.00;99.90
39237;DHT22;36851;49.996;8.268;2022-10-16T06:20:37;21.00;99.90
39237;DHT22;36851;49.996;8.268;2022-10-16T06:23:05;21.00;99.90
39237;DHT22;36851;49.996;8.268;2022-10-16T06:25:32;21.00;99.90
39237;DHT22;36851;49.996;8.268;2022-10-16T06:27:59;21.00;99.90
39237;DHT22;36851;49.996;8.268;2022-10-16T06:30:26;21.00;99.90
39237;DHT22;36851;49.996;8.268;2022-10-16T06:32:53;21.00;99.90
39237;DHT22;36851;49.996;8.268;2022-10-16T06:35:25;21.00;99.90
39237;DHT22;36851;49.996;8.268;2022-10-16T06:37:53;21.00;99.90
39237;DHT22;36851;49.996;8.268;2022-10-16T06:40:20;21.00;99.90
39237;DHT22;36851;49.996;8.268;2022-10-16T06:42:47;21.00;99.90
39237;DHT22;36851;49.996;8.268;2022-10-16T06:45:14;21.00;99.90
39237;DHT22;36851;49.996;8.268;2022-10-16T06:47:41;21.00;99.90
39237;DHT22;36851;49.996;8.268;2022-10-16T06:50:08;21.00;99.90
39237;DHT22;36851;49.996;8.268;2022-10-16T06:52:35;21.10;99.90
39237;DHT22;36851;49.996;8.268;2022-10-16T06:55:02;21.10;99.90
39237;DHT22;36851;49.996;8.268;2022-10-16T06:57:29;21.10;99.90
39237;DHT22;36851;49.996;8.268;2022-10-16T06:59:57;21.10;99.90
39237;DHT22;36851;49.996;8.268;2022-10-16T07:02:24;21.10;99.90
39237;DHT22;36851;49.996;8.268;2022-10-16T07:04:52;21.20;99.90
39237;DHT22;36851;49.996;8.268;2022-10-16T07:07:19;21.10;99.90
39237;DHT22;36851;49.996;8.268;2022-10-16T07:09:46;21.10;99.90
39237;DHT22;36851;49.996;8.268;2022-10-16T07:12:13;21.10;99.90
39237;DHT22;36851;49.996;8.268;2022-10-16T07:14:40;21.10;99.90
39237;DHT22;36851;49.996;8.268;2022-10-16T07:17:07;21.10;99.90
39237;DHT22;36851;49.996;8.268;2022-10-16T07:19:35;21.10;99.90
39237;DHT22;36851;49.996;8.268;2022-10-16T07:22:02;21.10;99.90
39237;DHT22;36851;49.996;8.268;2022-10-16T07:24:29;21.10;99.90
39237;DHT22;36851;49.996;8.268;2022-10-16T07:26:57;21.20;99.90
39237;DHT22;36851;49.996;8.268;2022-10-16T07:29:24;21.20;99.90
39237;DHT22;36851;49.996;8.268;2022-10-16T07:31:51;21.20;99.90
39237;DHT22;36851;49.996;8.268;2022-10-16T07:34:18;21.20;99.90
39237;DHT22;36851;49.996;8.268;2022-10-16T07:36:47;21.20;99.90
39237;DHT22;36851;49.996;8.268;2022-10-16T07:39:15;21.30;99.90
39237;DHT22;36851;49.996;8.268;2022-10-16T07:41:42;21.30;99.90
39237;DHT22;36851;49.996;8.268;2022-10-16T07:44:09;21.30;99.90
39237;DHT22;36851;49.996;8.268;2022-10-16T07:46:36;21.20;99.90
39237;DHT22;36851;49.996;8.268;2022-10-16T07:49:03;21.10;99.90
39237;DHT22;36851;49.996;8.268;2022-10-16T07:51:31;20.90;99.90
39237;DHT22;36851;49.996;8.268;2022-10-16T07:53:58;20.60;99.90
39237;DHT22;36851;49.996;8.268;2022-10-16T07:56:25;20.50;99.90
39237;DHT22;36851;49.996;8.268;2022-10-16T07:58:53;20.40;99.90
39237;DHT22;36851;49.996;8.268;2022-10-16T08:01:20;20.30;99.90
39237;DHT22;36851;49.996;8.268;2022-10-16T08:03:48;20.20;99.90
39237;DHT22;36851;49.996;8.268;2022-10-16T08:06:16;20.20;99.90
39237;DHT22;36851;49.996;8.268;2022-10-16T08:08:47;20.30;99.90
39237;DHT22;36851;49.996;8.268;2022-10-16T08:11:14;20.40;99.90
39237;DHT22;36851;49.996;8.268;2022-10-16T08:13:42;20.60;99.90
39237;DHT22;36851;49.996;8.268;2022-10-16T08:16:09;20.80;99.90
39237;DHT22;36851;49.996;8.268;2022-10-16T08:18:37;20.90;99.90
39237;DHT22;36851;49.996;8.268;2022-10-16T08:21:05;21.00;99.90
39237;DHT22;36851;49.996;8.268;2022-10-16T08:23:33;21.10;99.90
39237;DHT22;36851;49.996;8.268;2022-10-16T08:26:04;21.20;99.90
39237;DHT22;36851;49.996;8.268;2022-10-16T08:28:32;21.30;99.90
39237;DHT22;36851;49.996;8.268;2022-10-16T08:31:09;21.40;99.90
39237;DHT22;36851;49.996;8.268;2022-10-16T08:33:37;21.50;99.90
39237;DHT22;36851;49.996;8.268;2022-10-16T08:36:05;21.50;99.90
39237;DHT22;36851;49.996;8.268;2022-10-16T08:38:33;21.50;99.90
39237;DHT22;36851;49.996;8.268;2022-10-16T08:44:04;21.50;99.90
39237;DHT22;36851;49.996;8.268;2022-10-16T08:49:22;21.60;99.90
39237;DHT22;36851;49.996;8.268;2022-10-16T08:51:51;21.60;99.90
39237;DHT22;36851;49.996;8.268;2022-10-16T08:54:32;21.60;99.90
39237;DHT22;36851;49.996;8.268;2022-10-16T08:57:11;21.60;99.90
39237;DHT22;36851;49.996;8.268;2022-10-16T08:59:39;21.60;99.90
39237;DHT22;36851;49.996;8.268;2022-10-16T09:02:22;21.60;99.90
39237;DHT22;36851;49.996;8.268;2022-10-16T09:04:55;21.60;99.90
39237;DHT22;36851;49.996;8.268;2022-10-16T09:07:32;21.60;99.90
39237;DHT22;36851;49.996;8.268;2022-10-16T09:23:14;21.50;99.90
39237;DHT22;36851;49.996;8.268;2022-10-16T09:25:43;21.50;99.90
39237;DHT22;36851;49.996;8.268;2022-10-16T09:28:10;21.50;99.90
39237;DHT22;36851;49.996;8.268;2022-10-16T09:30:37;21.40;99.90
39237;DHT22;36851;49.996;8.268;2022-10-16T09:33:06;21.40;99.90
39237;DHT22;36851;49.996;8.268;2022-10-16T09:35:38;21.40;99.90
39237;DHT22;36851;49.996;8.268;2022-10-16T09:38:06;21.40;99.90
39237;DHT22;36851;49.996;8.268;2022-10-16T09:43:07;21.40;99.90
39237;DHT22;36851;49.996;8.268;2022-10-16T09:45:39;21.40;99.90
39237;DHT22;36851;49.996;8.268;2022-10-16T09:48:10;21.30;99.90
39237;DHT22;36851;49.996;8.268;2022-10-16T09:50:38;21.40;99.90
39237;DHT22;36851;49.996;8.268;2022-10-16T09:53:07;21.40;99.90
39237;DHT22;36851;49.996;8.268;2022-10-16T09:55:47;21.40;99.90
39237;DHT22;36851;49.996;8.268;2022-10-16T09:58:14;21.10;99.90
39237;DHT22;36851;49.996;8.268;2022-10-16T10:00:41;21.00;99.90
39237;DHT22;36851;49.996;8.268;2022-10-16T10:03:10;21.00;99.90
39237;DHT22;36851;49.996;8.268;2022-10-16T10:05:37;20.90;99.90
39237;DHT22;36851;49.996;8.268;2022-10-16T10:08:06;20.90;99.90
39237;DHT22;36851;49.996;8.268;2022-10-16T10:10:39;20.90;99.90
39237;DHT22;36851;49.996;8.268;2022-10-16T10:13:20;21.00;99.90
39237;DHT22;36851;49.996;8.268;2022-10-16T10:15:49;21.10;99.90
39237;DHT22;36851;49.996;8.268;2022-10-16T10:18:20;21.20;99.90
39237;DHT22;36851;49.996;8.268;2022-10-16T10:20:59;21.20;99.90
39237;DHT22;36851;49.996;8.268;2022-10-16T10:23:27;21.10;99.90
39237;DHT22;36851;49.996;8.268;2022-10-16T10:36:28;21.00;99.90
39237;DHT22;36851;49.996;8.268;2022-10-16T10:39:01;21.10;99.90
39237;DHT22;36851;49.996;8.268;2022-10-16T11:00:03;21.10;99.90
39237;DHT22;36851;49.996;8.268;2022-10-16T11:02:41;21.10;99.90
39237;DHT22;36851;49.996;8.268;2022-10-16T11:07:39;21.20;99.90
39237;DHT22;36851;49.996;8.268;2022-10-16T11:10:13;21.10;99.90
39237;DHT22;36851;49.996;8.268;2022-10-16T11:12:44;21.20;99.90
39237;DHT22;36851;49.996;8.268;2022-10-16T11:18:04;21.10;99.90
39237;DHT22;36851;49.996;8.268;2022-10-16T11:20:29;21.10;99.90
39237;DHT22;36851;49.996;8.268;2022-10-16T11:25:37;21.10;99.90
39237;DHT22;36851;49.996;8.268;2022-10-16T11:28:26;21.10;99.90
39237;DHT22;36851;49.996;8.268;2022-10-16T11:31:17;21.10;99.90
39237;DHT22;36851;49.996;8.268;2022-10-16T11:33:51;21.10;99.90
39237;DHT22;36851;49.996;8.268;2022-10-16T11:38:57;21.10;99.90
39237;DHT22;36851;49.996;8.268;2022-10-16T11:41:28;21.20;99.90
39237;DHT22;36851;49.996;8.268;2022-10-16T11:46:43;21.20;99.90
39237;DHT22;36851;49.996;8.268;2022-10-16T11:49:32;21.20;99.90
39237;DHT22;36851;49.996;8.268;2022-10-16T11:52:05;21.20;99.90
39237;DHT22;36851;49.996;8.268;2022-10-16T11:54:45;21.10;99.90
39237;DHT22;36851;49.996;8.268;2022-10-16T11:57:24;21.20;99.90
39237;DHT22;36851;49.996;8.268;2022-10-16T12:05:28;21.20;99.90
39237;DHT22;36851;49.996;8.268;2022-10-16T12:10:28;21.20;99.90
39237;DHT22;36851;49.996;8.268;2022-10-16T12:12:58;21.20;99.90
39237;DHT22;36851;49.996;8.268;2022-10-16T12:15:29;21.20;99.90
39237;DHT22;36851;49.996;8.268;2022-10-16T12:18:21;21.20;99.90
39237;DHT22;36851;49.996;8.268;2022-10-16T12:20:57;21.20;99.90
39237;DHT22;36851;49.996;8.268;2022-10-16T12:23:26;21.20;99.90
39237;DHT22;36851;49.996;8.268;2022-10-16T12:25:57;21.20;99.90
39237;DHT22;36851;49.996;8.268;2022-10-16T12:28:30;21.10;99.90
39237;DHT22;36851;49.996;8.268;2022-10-16T12:31:00;21.20;99.90
39237;DHT22;36851;49.996;8.268;2022-10-16T12:33:29;21.10;99.90
39237;DHT22;36851;49.996;8.268;2022-10-16T12:35:58;21.20;99.90
39237;DHT22;36851;49.996;8.268;2022-10-16T12:38:27;21.20;99.90
39237;DHT22;36851;49.996;8.268;2022-10-16T12:41:02;21.20;99.90
39237;DHT22;36851;49.996;8.268;2022-10-16T12:43:39;21.10;99.90
39237;DHT22;36851;49.996;8.268;2022-10-16T12:48:39;21.20;99.90
39237;DHT22;36851;49.996;8.268;2022-10-16T12:51:23;21.20;99.90
39237;DHT22;36851;49.996;8.268;2022-10-16T12:54:04;21.10;99.90
39237;DHT22;36851;49.996;8.268;2022-10-16T12:59:32;21.10;99.90
39237;DHT22;36851;49.996;8.268;2022-10-16T13:02:06;21.20;99.90
39237;DHT22;36851;49.996;8.268;2022-10-16T13:04:44;21.20;99.90
39237;DHT22;36851;49.996;8.268;2022-10-16T13:27:57;21.10;99.90
39237;DHT22;36851;49.996;8.268;2022-10-16T13:30:26;21.20;99.90
39237;DHT22;36851;49.996;8.268;2022-10-16T13:35:25;21.20;99.90
39237;DHT22;36851;49.996;8.268;2022-10-16T13:40:54;21.20;99.90
39237;DHT22;36851;49.996;8.268;2022-10-16T13:43:23;21.10;99.90
39237;DHT22;36851;49.996;8.268;2022-10-16T13:48:25;21.10;99.90
39237;DHT22;36851;49.996;8.268;2022-10-16T13:51:06;21.20;99.90
39237;DHT22;36851;49.996;8.268;2022-10-16T13:53:34;21.20;99.90
39237;DHT22;36851;49.996;8.268;2022-10-16T13:56:03;21.10;99.90
39237;DHT22;36851;49.996;8.268;2022-10-16T13:58:31;21.10;99.90
39237;DHT22;36851;49.996;8.268;2022-10-16T14:00:59;21.10;99.90
39237;DHT22;36851;49.996;8.268;2022-10-16T14:03:27;21.20;99.90
39237;DHT22;36851;49.996;8.268;2022-10-16T14:05:55;21.10;99.90
39237;DHT22;36851;49.996;8.268;2022-10-16T14:08:23;21.10;99.90
39237;DHT22;36851;49.996;8.268;2022-10-16T14:10:55;21.10;99.90
39237;DHT22;36851;49.996;8.268;2022-10-16T14:13:30;21.10;99.90
39237;DHT22;36851;49.996;8.268;2022-10-16T14:15:58;21.10;99.90
39237;DHT22;36851;49.996;8.268;2022-10-16T14:18:26;21.10;99.90
39237;DHT22;36851;49.996;8.268;2022-10-16T14:21:05;21.10;99.90
39237;DHT22;36851;49.996;8.268;2022-10-16T14:23:37;21.10;99.90
39237;DHT22;36851;49.996;8.268;2022-10-16T14:26:14;21.10;99.90
39237;DHT22;36851;49.996;8.268;2022-10-16T14:28:42;21.10;99.90
39237;DHT22;36851;49.996;8.268;2022-10-16T14:33:46;21.10;99.90
39237;DHT22;36851;49.996;8.268;2022-10-16T14:36:13;21.20;99.90
39237;DHT22;36851;49.996;8.268;2022-10-16T14:39:17;21.10;99.90
39237;DHT22;36851;49.996;8.268;2022-10-16T14:41:40;21.10;99.90
39237;DHT22;36851;49.996;8.268;2022-10-16T14:44:09;21.10;99.90
39237;DHT22;36851;49.996;8.268;2022-10-16T14:46:38;21.10;99.90
39237;DHT22;36851;49.996;8.268;2022-10-16T14:51:37;21.10;99.90
39237;DHT22;36851;49.996;8.268;2022-10-16T14:54:04;21.10;99.90
39237;DHT22;36851;49.996;8.268;2022-10-16T14:59:37;21.10;99.90
39237;DHT22;36851;49.996;8.268;2022-10-16T15:04:47;21.10;99.90
39237;DHT22;36851;49.996;8.268;2022-10-16T15:07:15;21.10;99.90
39237;DHT22;36851;49.996;8.268;2022-10-16T15:09:42;21.10;99.90
39237;DHT22;36851;49.996;8.268;2022-10-16T15:12:15;21.10;99.90
39237;DHT22;36851;49.996;8.268;2022-10-16T15:14:43;21.10;99.90
39237;DHT22;36851;49.996;8.268;2022-10-16T15:17:10;21.10;99.90
39237;DHT22;36851;49.996;8.268;2022-10-16T15:19:37;21.10;99.90
39237;DHT22;36851;49.996;8.268;2022-10-16T15:22:04;21.10;99.90
39237;DHT22;36851;49.996;8.268;2022-10-16T15:24:32;21.10;99.90
39237;DHT22;36851;49.996;8.268;2022-10-16T15:26:59;21.10;99.90
39237;DHT22;36851;49.996;8.268;2022-10-16T15:29:26;21.10;99.90
39237;DHT22;36851;49.996;8.268;2022-10-16T15:31:53;21.10;99.90
39237;DHT22;36851;49.996;8.268;2022-10-16T15:34:20;21.10;99.90
39237;DHT22;36851;49.996;8.268;2022-10-16T15:36:47;21.10;99.90
39237;DHT22;36851;49.996;8.268;2022-10-16T15:39:18;21.10;99.90
39237;DHT22;36851;49.996;8.268;2022-10-16T15:41:46;21.10;99.90
39237;DHT22;36851;49.996;8.268;2022-10-16T15:44:18;21.10;99.90
39237;DHT22;36851;49.996;8.268;2022-10-16T15:46:46;21.10;99.90
39237;DHT22;36851;49.996;8.268;2022-10-16T15:49:13;21.10;99.90
39237;DHT22;36851;49.996;8.268;2022-10-16T15:51:41;21.10;99.90
39237;DHT22;36851;49.996;8.268;2022-10-16T15:54:08;21.10;99.90
39237;DHT22;36851;49.996;8.268;2022-10-16T15:56:35;21.10;99.90
39237;DHT22;36851;49.996;8.268;2022-10-16T15:59:03;21.10;99.90
39237;DHT22;36851;49.996;8.268;2022-10-16T16:01:34;21.10;99.90
39237;DHT22;36851;49.996;8.268;2022-10-16T16:04:01;21.10;99.90
39237;DHT22;36851;49.996;8.268;2022-10-16T16:06:46;21.10;99.90
39237;DHT22;36851;49.996;8.268;2022-10-16T16:09:13;21.10;99.90
39237;DHT22;36851;49.996;8.268;2022-10-16T16:11:40;21.10;99.90
39237;DHT22;36851;49.996;8.268;2022-10-16T16:14:11;21.20;99.90
39237;DHT22;36851;49.996;8.268;2022-10-16T16:16:39;21.20;99.90
39237;DHT22;36851;49.996;8.268;2022-10-16T16:19:08;21.30;99.90
39237;DHT22;36851;49.996;8.268;2022-10-16T16:21:38;21.40;99.90
39237;DHT22;36851;49.996;8.268;2022-10-16T16:24:05;21.40;99.90
39237;DHT22;36851;49.996;8.268;2022-10-16T16:26:35;21.50;99.90
39237;DHT22;36851;49.996;8.268;2022-10-16T16:29:06;21.50;99.90
39237;DHT22;36851;49.996;8.268;2022-10-16T16:31:33;21.60;99.90
39237;DHT22;36851;49.996;8.268;2022-10-16T16:34:01;21.60;99.90
39237;DHT22;36851;49.996;8.268;2022-10-16T16:36:29;21.60;99.90
39237;DHT22;36851;49.996;8.268;2022-10-16T16:38:57;21.60;99.90
39237;DHT22;36851;49.996;8.268;2022-10-16T16:41:26;21.60;99.90
39237;DHT22;36851;49.996;8.268;2022-10-16T16:43:53;21.60;99.90
39237;DHT22;36851;49.996;8.268;2022-10-16T16:46:21;21.60;99.90
39237;DHT22;36851;49.996;8.268;2022-10-16T16:48:48;21.60;99.90
39237;DHT22;36851;49.996;8.268;2022-10-16T16:51:17;21.60;99.90
39237;DHT22;36851;49.996;8.268;2022-10-16T16:53:47;21.60;99.90
39237;DHT22;36851;49.996;8.268;2022-10-16T16:56:14;21.60;99.90
39237;DHT22;36851;49.996;8.268;2022-10-16T16:58:44;21.60;99.90
39237;DHT22;36851;49.996;8.268;2022-10-16T17:01:11;21.60;99.90
39237;DHT22;36851;49.996;8.268;2022-10-16T17:03:46;21.60;99.90
39237;DHT22;36851;49.996;8.268;2022-10-16T17:06:16;21.60;99.90
39237;DHT22;36851;49.996;8.268;2022-10-16T17:08:47;21.60;99.90
39237;DHT22;36851;49.996;8.268;2022-10-16T17:11:15;21.60;99.90
39237;DHT22;36851;49.996;8.268;2022-10-16T17:13:43;21.60;99.90
39237;DHT22;36851;49.996;8.268;2022-10-16T17:16:10;21.50;99.90
39237;DHT22;36851;49.996;8.268;2022-10-16T17:18:37;21.60;99.90
39237;DHT22;36851;49.996;8.268;2022-10-16T17:21:06;21.60;99.90
39237;DHT22;36851;49.996;8.268;2022-10-16T17:23:34;21.50;99.90
39237;DHT22;36851;49.996;8.268;2022-10-16T17:28:31;21.50;99.90
39237;DHT22;36851;49.996;8.268;2022-10-16T17:31:08;21.50;99.90
39237;DHT22;36851;49.996;8.268;2022-10-16T17:33:41;21.50;99.90
39237;DHT22;36851;49.996;8.268;2022-10-16T17:36:08;21.50;99.90
39237;DHT22;36851;49.996;8.268;2022-10-16T17:38:36;21.50;99.90
39237;DHT22;36851;49.996;8.268;2022-10-16T17:41:19;21.50;99.90
39237;DHT22;36851;49.996;8.268;2022-10-16T17:43:47;21.50;99.90
39237;DHT22;36851;49.996;8.268;2022-10-16T17:46:15;21.50;99.90
39237;DHT22;36851;49.996;8.268;2022-10-16T17:48:43;21.40;99.90
39237;DHT22;36851;49.996;8.268;2022-10-16T17:51:12;21.40;99.90